| time (UTC) | temp C | wind direction | speed KPH | gust KPH | rain 1hr cm | rain 24hr cm | rain mn cm | humidity % | barometer mb |
| 20260507075004 | 11 | 0 | 0.0 | 0.0 | 0.00 | 0.00 | 0.00 | 95 | 992.1 |
| 20260507074002 | 11 | 238 | 0.0 | 1.6 | 0.00 | 0.00 | 0.00 | 95 | 992.1 |
| 20260507073004 | 11 | 0 | 0.0 | 0.0 | 0.00 | 0.00 | 0.00 | 94 | 992.2 |
| 20260507072003 | 11 | 173 | 0.0 | 1.6 | 0.00 | 0.00 | 0.00 | 94 | 992.2 |
| 20260507071004 | 11 | 0 | 0.0 | 0.0 | 0.00 | 0.00 | 0.00 | 94 | 992.2 |
| 20260507070008 | 11 | 162 | 0.0 | 0.0 | 0.00 | 0.00 | 0.00 | 94 | 992.2 |
| 20260507065003 | 11 | 106 | 0.0 | 1.6 | 0.00 | 0.00 | 0.00 | 94 | 992.2 |
| 20260507064002 | 11 | 158 | 0.0 | 1.6 | 0.00 | 0.00 | 0.00 | 94 | 992.1 |
| 20260507063004 | 11 | 0 | 0.0 | 0.0 | 0.00 | 0.00 | 0.00 | 94 | 992.1 |
| 20260507062004 | 11 | 178 | 1.6 | 1.6 | 0.00 | 0.00 | 0.00 | 94 | 992.1 |
| 20260507061005 | 11 | 202 | 0.0 | 1.6 | 0.00 | 0.00 | 0.00 | 94 | 992.2 |
| 20260507060002 | 11 | 0 | 0.0 | 0.0 | 0.00 | 0.00 | 0.00 | 94 | 992.2 |
| 20260507055003 | 11 | 0 | 0.0 | 0.0 | 0.00 | 0.00 | 0.00 | 94 | 992.2 |
| 20260507054003 | 11 | 208 | 0.0 | 0.0 | 0.00 | 0.00 | 0.00 | 94 | 992.2 |
| 20260507053004 | 11 | 0 | 0.0 | 0.0 | 0.00 | 0.00 | 0.00 | 94 | 992.3 |
| 20260507052003 | 11 | 144 | 0.0 | 1.6 | 0.00 | 0.00 | 0.00 | 93 | 992.3 |
| 20260507051003 | 11 | 92 | 0.0 | 1.6 | 0.00 | 0.00 | 0.00 | 93 | 992.3 |
| 20260507050003 | 11 | 87 | 0.0 | 1.6 | 0.00 | 0.00 | 0.00 | 93 | 992.3 |
| 20260507045003 | 11 | 208 | 1.6 | 4.8 | 0.00 | 0.00 | 0.00 | 93 | 992.3 |
| 20260507044004 | 11 | 207 | 1.6 | 3.2 | 0.00 | 0.00 | 0.00 | 93 | 992.3 |
| 20260507043003 | 11 | 176 | 0.0 | 3.2 | 0.00 | 0.00 | 0.00 | 93 | 992.3 |
| 20260507042003 | 12 | 145 | 1.6 | 3.2 | 0.00 | 0.00 | 0.00 | 93 | 992.2 |
| 20260507041002 | 12 | 210 | 1.6 | 3.2 | 0.00 | 0.00 | 0.00 | 93 | 992.1 |
| 20260507040004 | 12 | 188 | 1.6 | 3.2 | 0.00 | 0.00 | 0.00 | 92 | 992.0 |
| 20260507035002 | 12 | 117 | 0.0 | 1.6 | 0.00 | 0.00 | 0.00 | 92 | 992.0 |
| 20260507034003 | 12 | 174 | 3.2 | 4.8 | 0.00 | 0.00 | 0.00 | 92 | 991.9 |
| 20260507033004 | 12 | 210 | 1.6 | 3.2 | 0.00 | 0.00 | 0.00 | 92 | 991.8 |
| 20260507032003 | 12 | 138 | 1.6 | 3.2 | 0.00 | 0.00 | 0.00 | 91 | 991.8 |
| 20260507031004 | 12 | 144 | 1.6 | 3.2 | 0.00 | 0.00 | 0.00 | 91 | 991.7 |
| 20260507030002 | 12 | 172 | 1.6 | 3.2 | 0.00 | 0.00 | 0.00 | 91 | 991.5 |
| 20260507025003 | 12 | 134 | 3.2 | 4.8 | 0.00 | 0.00 | 0.00 | 91 | 991.5 |
| 20260507024003 | 13 | 143 | 1.6 | 3.2 | 0.00 | 0.00 | 0.00 | 90 | 991.3 |
| 20260507023004 | 13 | 146 | 0.0 | 3.2 | 0.00 | 0.00 | 0.00 | 90 | 991.3 |
| 20260507022004 | 13 | 168 | 3.2 | 4.8 | 0.00 | 0.00 | 0.00 | 89 | 991.3 |
| 20260507021003 | 13 | 142 | 3.2 | 3.2 | 0.00 | 0.00 | 0.00 | 88 | 991.2 |
| 20260507020004 | 14 | 133 | 4.8 | 6.4 | 0.00 | 0.00 | 0.00 | 87 | 991.3 |
| 20260507015003 | 14 | 94 | 3.2 | 4.8 | 0.00 | 0.00 | 0.00 | 85 | 991.2 |
| 20260507014004 | 15 | 141 | 3.2 | 6.4 | 0.00 | 0.00 | 0.00 | 84 | 991.2 |
| 20260507013002 | 15 | 104 | 3.2 | 6.4 | 0.00 | 0.00 | 0.00 | 83 | 991.1 |
| 20260507012004 | 15 | 124 | 3.2 | 4.8 | 0.00 | 0.00 | 0.00 | 82 | 991.1 |
| 20260507011004 | 16 | 265 | 1.6 | 3.2 | 0.00 | 0.00 | 0.00 | 80 | 991.1 |
| 20260507010004 | 16 | 154 | 1.6 | 3.2 | 0.00 | 0.00 | 0.00 | 79 | 991.1 |
| 20260507005004 | 17 | 133 | 3.2 | 4.8 | 0.00 | 0.00 | 0.00 | 77 | 991.0 |
| 20260507004003 | 17 | 108 | 3.2 | 4.8 | 0.00 | 0.00 | 0.00 | 77 | 990.9 |
| 20260507003004 | 18 | 82 | 1.6 | 3.2 | 0.00 | 0.00 | 0.00 | 76 | 990.8 |
| 20260507002002 | 18 | 145 | 4.8 | 6.4 | 0.00 | 0.00 | 0.00 | 72 | 990.8 |
| 20260507001004 | 19 | 80 | 1.6 | 3.2 | 0.00 | 0.00 | 0.00 | 72 | 990.8 |
| 20260507000005 | 19 | 153 | 1.6 | 4.8 | 0.00 | 0.00 | 0.00 | 70 | 990.7 |
| 20260506235004 | 20 | 113 | 4.8 | 8.0 | 0.00 | 0.00 | 0.00 | 70 | 990.6 |
| 20260506234004 | 20 | 179 | 0.0 | 3.2 | 0.00 | 0.00 | 0.00 | 70 | 990.5 |
| 20260506233003 | 20 | 118 | 3.2 | 6.4 | 0.00 | 0.00 | 0.00 | 69 | 990.6 |
| 20260506232003 | 20 | 225 | 3.2 | 4.8 | 0.00 | 0.00 | 0.00 | 68 | 990.7 |
| 20260506231003 | 21 | 151 | 1.6 | 3.2 | 0.00 | 0.00 | 0.00 | 67 | 990.7 |
| 20260506230003 | 21 | 182 | 0.0 | 0.0 | 0.00 | 0.00 | 0.00 | 66 | 990.8 |
| 20260506225004 | 21 | 134 | 4.8 | 9.7 | 0.00 | 0.00 | 0.00 | 66 | 990.9 |
| 20260506224003 | 22 | 151 | 4.8 | 8.0 | 0.00 | 0.00 | 0.00 | 64 | 990.9 |
| 20260506223003 | 22 | 150 | 4.8 | 4.8 | 0.00 | 0.00 | 0.00 | 63 | 990.9 |
| 20260506222004 | 23 | 166 | 4.8 | 8.0 | 0.00 | 0.00 | 0.00 | 61 | 990.9 |
| 20260506221003 | 23 | 169 | 3.2 | 6.4 | 0.00 | 0.00 | 0.00 | 60 | 991.0 |
| 20260506220003 | 23 | 143 | 3.2 | 4.8 | 0.00 | 0.00 | 0.00 | 61 | 991.1 |
| 20260506215004 | 23 | 171 | 4.8 | 9.7 | 0.00 | 0.00 | 0.00 | 62 | 991.1 |
| 20260506214003 | 23 | 183 | 1.6 | 3.2 | 0.00 | 0.00 | 0.00 | 61 | 991.3 |
| 20260506213003 | 23 | 207 | 4.8 | 9.7 | 0.00 | 0.00 | 0.00 | 61 | 991.3 |
| 20260506212002 | 23 | 205 | 4.8 | 6.4 | 0.00 | 0.00 | 0.00 | 60 | 991.4 |
| 20260506211003 | 23 | 146 | 3.2 | 4.8 | 0.00 | 0.00 | 0.00 | 62 | 991.5 |
| 20260506210005 | 23 | 139 | 3.2 | 4.8 | 0.00 | 0.00 | 0.00 | 60 | 991.5 |
| 20260506205003 | 23 | 123 | 3.2 | 4.8 | 0.00 | 0.00 | 0.00 | 61 | 991.6 |
| 20260506204003 | 23 | 210 | 3.2 | 4.8 | 0.00 | 0.00 | 0.00 | 61 | 991.6 |
| 20260506203003 | 23 | 231 | 3.2 | 6.4 | 0.00 | 0.00 | 0.00 | 64 | 991.7 |
| 20260506202002 | 23 | 22 | 3.2 | 6.4 | 0.00 | 0.00 | 0.00 | 62 | 991.8 |
| 20260506201004 | 23 | 225 | 3.2 | 4.8 | 0.00 | 0.00 | 0.00 | 58 | 991.9 |
| 20260506200003 | 23 | 208 | 3.2 | 6.4 | 0.00 | 0.00 | 0.00 | 56 | 991.9 |
| 20260506195004 | 23 | 105 | 4.8 | 8.0 | 0.00 | 0.00 | 0.00 | 59 | 992.1 |
| 20260506194004 | 22 | 26 | 3.2 | 6.4 | 0.00 | 0.00 | 0.00 | 62 | 992.1 |
| 20260506193004 | 21 | 97 | 3.2 | 6.4 | 0.00 | 0.00 | 0.00 | 61 | 992.1 |
| 20260506192003 | 21 | 201 | 1.6 | 3.2 | 0.00 | 0.00 | 0.00 | 62 | 992.2 |
| 20260506191004 | 21 | 215 | 3.2 | 6.4 | 0.00 | 0.00 | 0.00 | 62 | 992.4 |
| 20260506190004 | 21 | 197 | 4.8 | 6.4 | 0.00 | 0.00 | 0.00 | 61 | 992.4 |
| 20260506185004 | 20 | 0 | 0.0 | 0.0 | 0.00 | 0.00 | 0.00 | 64 | 992.4 |
| 20260506184004 | 20 | 72 | 0.0 | 1.6 | 0.00 | 0.00 | 0.00 | 64 | 992.5 |
| 20260506183004 | 20 | 101 | 4.8 | 4.8 | 0.00 | 0.00 | 0.00 | 65 | 992.6 |
| 20260506182003 | 20 | 66 | 3.2 | 3.2 | 0.00 | 0.00 | 0.00 | 67 | 992.7 |
| 20260506181004 | 20 | 24 | 1.6 | 3.2 | 0.00 | 0.00 | 0.00 | 67 | 992.7 |
| 20260506180005 | 19 | 56 | 0.0 | 1.6 | 0.00 | 0.00 | 0.00 | 69 | 992.8 |
| 20260506175003 | 18 | 77 | 1.6 | 1.6 | 0.00 | 0.00 | 0.00 | 69 | 992.8 |
| 20260506174002 | 18 | 212 | 3.2 | 4.8 | 0.00 | 0.00 | 0.00 | 72 | 992.9 |
| 20260506173003 | 17 | 124 | 3.2 | 4.8 | 0.00 | 0.00 | 0.00 | 71 | 992.9 |
| 20260506172003 | 16 | 116 | 1.6 | 3.2 | 0.00 | 0.00 | 0.00 | 75 | 993.0 |
| 20260506171006 | 15 | 140 | 3.2 | 3.2 | 0.00 | 0.00 | 0.00 | 77 | 993.0 |
| 20260506170004 | 15 | 88 | 3.2 | 4.8 | 0.00 | 0.00 | 0.00 | 78 | 993.0 |
| 20260506165003 | 15 | 89 | 3.2 | 4.8 | 0.00 | 0.00 | 0.00 | 78 | 993.0 |
| 20260506164002 | 14 | 50 | 3.2 | 4.8 | 0.00 | 0.00 | 0.00 | 80 | 993.0 |
| 20260506163003 | 13 | 159 | 3.2 | 3.2 | 0.00 | 0.00 | 0.00 | 84 | 993.1 |
| 20260506162003 | 13 | 159 | 1.6 | 1.6 | 0.00 | 0.00 | 0.00 | 86 | 993.2 |
| 20260506161003 | 12 | 0 | 0.0 | 0.0 | 0.00 | 0.00 | 0.00 | 90 | 993.1 |
| 20260506160004 | 12 | 134 | 1.6 | 3.2 | 0.00 | 0.00 | 0.00 | 89 | 993.2 |
| 20260506155003 | 12 | 47 | 0.0 | 0.0 | 0.00 | 0.00 | 0.00 | 93 | 993.1 |
| 20260506154004 | 11 | 0 | 0.0 | 0.0 | 0.00 | 0.00 | 0.00 | 94 | 993.2 |
| 20260506153003 | 11 | 73 | 0.0 | 0.0 | 0.00 | 0.00 | 0.00 | 96 | 993.1 |
| 20260506152003 | 11 | 87 | 0.0 | 1.6 | 0.00 | 0.00 | 0.00 | 96 | 993.1 |
| 20260506151003 | 10 | 0 | 0.0 | 0.0 | 0.00 | 0.00 | 0.00 | 96 | 993.2 |
| 20260506150004 | 10 | 75 | 0.0 | 0.0 | 0.00 | 0.00 | 0.00 | 96 | 993.2 |
| 20260506145003 | 10 | 0 | 0.0 | 0.0 | 0.00 | 0.00 | 0.00 | 96 | 993.2 |
| 20260506143003 | 10 | 0 | 0.0 | 0.0 | 0.00 | 0.00 | 0.00 | 96 | 993.2 |
| 20260506142002 | 10 | 0 | 0.0 | 0.0 | 0.00 | 0.00 | 0.00 | 96 | 993.1 |
| 20260506141003 | 10 | 0 | 0.0 | 0.0 | 0.00 | 0.00 | 0.00 | 96 | 993.1 |
| 20260506140003 | 10 | 0 | 0.0 | 0.0 | 0.00 | 0.00 | 0.00 | 96 | 993.0 |
| 20260506135002 | 10 | 0 | 0.0 | 0.0 | 0.00 | 0.00 | 0.00 | 96 | 992.9 |
| 20260506134003 | 10 | 0 | 0.0 | 0.0 | 0.00 | 0.00 | 0.00 | 95 | 992.7 |
| 20260506133003 | 10 | 0 | 0.0 | 0.0 | 0.00 | 0.00 | 0.00 | 95 | 992.6 |
| 20260506132003 | 10 | 0 | 0.0 | 0.0 | 0.00 | 0.00 | 0.00 | 95 | 992.5 |
| 20260506131003 | 10 | 0 | 0.0 | 0.0 | 0.00 | 0.00 | 0.00 | 95 | 992.4 |
| 20260506130003 | 10 | 0 | 0.0 | 0.0 | 0.00 | 0.00 | 0.00 | 95 | 992.3 |
| 20260506125003 | 10 | 236 | 0.0 | 1.6 | 0.00 | 0.00 | 0.00 | 95 | 992.3 |
| 20260506124003 | 10 | 0 | 0.0 | 0.0 | 0.00 | 0.00 | 0.00 | 95 | 992.2 |
| 20260506123003 | 10 | 0 | 0.0 | 0.0 | 0.00 | 0.00 | 0.00 | 95 | 992.1 |
| 20260506122003 | 11 | 0 | 0.0 | 0.0 | 0.00 | 0.00 | 0.00 | 94 | 992.1 |
| 20260506121003 | 11 | 0 | 0.0 | 0.0 | 0.00 | 0.00 | 0.00 | 94 | 992.0 |
| 20260506120003 | 11 | 208 | 0.0 | 0.0 | 0.00 | 0.00 | 0.00 | 94 | 992.0 |
| 20260506115003 | 11 | 0 | 0.0 | 0.0 | 0.00 | 0.00 | 0.00 | 94 | 991.9 |
| 20260506114006 | 11 | 0 | 0.0 | 0.0 | 0.00 | 0.00 | 0.00 | 94 | 991.9 |
| 20260506113003 | 11 | 0 | 0.0 | 0.0 | 0.00 | 0.00 | 0.00 | 94 | 991.9 |
| 20260506112003 | 11 | 107 | 0.0 | 0.0 | 0.00 | 0.00 | 0.00 | 94 | 991.9 |
| 20260506111003 | 11 | 191 | 0.0 | 1.6 | 0.00 | 0.00 | 0.00 | 94 | 991.8 |
| 20260506110002 | 11 | 0 | 0.0 | 0.0 | 0.00 | 0.00 | 0.00 | 94 | 991.7 |
| 20260506105003 | 11 | 0 | 0.0 | 0.0 | 0.00 | 0.00 | 0.00 | 94 | 991.6 |
| 20260506104003 | 11 | 102 | 0.0 | 1.6 | 0.00 | 0.00 | 0.00 | 94 | 991.6 |
| 20260506103002 | 11 | 0 | 0.0 | 0.0 | 0.00 | 0.00 | 0.00 | 94 | 991.6 |
| 20260506102003 | 11 | 0 | 0.0 | 0.0 | 0.00 | 0.00 | 0.00 | 94 | 991.8 |
| 20260506101003 | 11 | 0 | 0.0 | 0.0 | 0.00 | 0.00 | 0.00 | 94 | 991.7 |
| 20260506100005 | 11 | 55 | 0.0 | 0.0 | 0.00 | 0.00 | 0.00 | 94 | 991.7 |
| 20260506095003 | 11 | 0 | 0.0 | 0.0 | 0.00 | 0.00 | 0.00 | 94 | 991.7 |
| 20260506094002 | 11 | 0 | 0.0 | 0.0 | 0.00 | 0.00 | 0.00 | 94 | 991.8 |
| 20260506093003 | 11 | 70 | 0.0 | 0.0 | 0.00 | 0.00 | 0.00 | 94 | 991.8 |
| 20260506092002 | 11 | 0 | 0.0 | 0.0 | 0.00 | 0.00 | 0.00 | 94 | 991.7 |
| 20260506091003 | 11 | 0 | 0.0 | 0.0 | 0.00 | 0.00 | 0.00 | 93 | 991.7 |
| 20260506090003 | 11 | 0 | 0.0 | 0.0 | 0.00 | 0.00 | 0.00 | 93 | 991.6 |
| 20260506085002 | 11 | 226 | 0.0 | 0.0 | 0.00 | 0.00 | 0.00 | 93 | 991.6 |
| 20260506084005 | 11 | 0 | 0.0 | 0.0 | 0.00 | 0.00 | 0.00 | 93 | 991.7 |
| 20260506083003 | 11 | 237 | 0.0 | 0.0 | 0.00 | 0.00 | 0.00 | 93 | 991.7 |
| 20260506082003 | 11 | 0 | 0.0 | 0.0 | 0.00 | 0.00 | 0.00 | 93 | 991.7 |
| 20260506081002 | 11 | 0 | 0.0 | 0.0 | 0.00 | 0.00 | 0.00 | 93 | 991.7 |